sensor_id;sensor_type;location;lat;lon;timestamp;pressure;altitude;pressure_sealevel;temperature;humidity
70916;BME280;58557;50.982;-3.222;2023-04-08T00:02:02;101586.31;;;11.44;42.62
70916;BME280;58557;50.982;-3.222;2023-04-08T00:04:27;101592.23;;;10.46;43.33
70916;BME280;58557;50.982;-3.222;2023-04-08T00:06:53;101587.85;;;10.31;44.00
70916;BME280;58557;50.982;-3.222;2023-04-08T00:09:19;101587.70;;;10.43;44.13
70916;BME280;58557;50.982;-3.222;2023-04-08T00:11:44;101589.32;;;10.89;43.54
70916;BME280;58557;50.982;-3.222;2023-04-08T00:14:09;101590.31;;;9.51;47.55
70916;BME280;58557;50.982;-3.222;2023-04-08T00:16:34;101591.24;;;10.31;44.78
70916;BME280;58557;50.982;-3.222;2023-04-08T00:19:00;101589.69;;;10.32;44.79
70916;BME280;58557;50.982;-3.222;2023-04-08T00:21:25;101589.96;;;10.44;43.42
70916;BME280;58557;50.982;-3.222;2023-04-08T00:23:51;101585.03;;;10.41;44.25
70916;BME280;58557;50.982;-3.222;2023-04-08T00:26:16;101583.78;;;9.78;44.37
70916;BME280;58557;50.982;-3.222;2023-04-08T00:28:41;101585.36;;;10.82;42.51
70916;BME280;58557;50.982;-3.222;2023-04-08T00:31:07;101585.60;;;10.90;42.88
70916;BME280;58557;50.982;-3.222;2023-04-08T00:33:32;101586.84;;;10.64;42.15
70916;BME280;58557;50.982;-3.222;2023-04-08T00:35:57;101586.38;;;10.27;43.46
70916;BME280;58557;50.982;-3.222;2023-04-08T00:38:23;101587.15;;;9.74;43.30
70916;BME280;58557;50.982;-3.222;2023-04-08T00:40:48;101582.29;;;10.38;42.39
70916;BME280;58557;50.982;-3.222;2023-04-08T00:43:13;101580.28;;;10.04;43.49
70916;BME280;58557;50.982;-3.222;2023-04-08T00:45:39;101572.62;;;9.10;44.98
70916;BME280;58557;50.982;-3.222;2023-04-08T00:48:05;101571.44;;;9.82;45.23
70916;BME280;58557;50.982;-3.222;2023-04-08T00:50:31;101575.86;;;9.84;45.11
70916;BME280;58557;50.982;-3.222;2023-04-08T00:52:55;101576.80;;;9.92;44.19
70916;BME280;58557;50.982;-3.222;2023-04-08T00:55:21;101570.76;;;9.44;45.38
70916;BME280;58557;50.982;-3.222;2023-04-08T00:57:46;101575.90;;;9.84;44.20
70916;BME280;58557;50.982;-3.222;2023-04-08T01:00:13;101578.64;;;9.43;44.87
70916;BME280;58557;50.982;-3.222;2023-04-08T01:02:44;101577.84;;;10.05;44.41
70916;BME280;58557;50.982;-3.222;2023-04-08T01:05:04;101583.15;;;8.79;45.51
70916;BME280;58557;50.982;-3.222;2023-04-08T01:07:30;101581.77;;;9.83;44.78
70916;BME280;58557;50.982;-3.222;2023-04-08T01:09:55;101579.39;;;9.93;44.70
70916;BME280;58557;50.982;-3.222;2023-04-08T01:12:21;101580.55;;;9.54;44.76
70916;BME280;58557;50.982;-3.222;2023-04-08T01:14:46;101581.71;;;9.17;46.84
70916;BME280;58557;50.982;-3.222;2023-04-08T01:17:10;101574.84;;;9.89;45.37
70916;BME280;58557;50.982;-3.222;2023-04-08T01:19:38;101575.75;;;9.98;44.46
70916;BME280;58557;50.982;-3.222;2023-04-08T01:22:07;101578.73;;;10.03;43.95
70916;BME280;58557;50.982;-3.222;2023-04-08T01:24:30;101583.68;;;8.61;46.33
70916;BME280;58557;50.982;-3.222;2023-04-08T01:26:52;101576.08;;;9.52;45.93
70916;BME280;58557;50.982;-3.222;2023-04-08T01:29:17;101578.16;;;9.46;45.66
70916;BME280;58557;50.982;-3.222;2023-04-08T01:31:43;101580.68;;;9.58;45.42
70916;BME280;58557;50.982;-3.222;2023-04-08T01:34:09;101580.92;;;9.16;45.42
70916;BME280;58557;50.982;-3.222;2023-04-08T01:36:34;101578.15;;;9.25;44.70
70916;BME280;58557;50.982;-3.222;2023-04-08T01:39:01;101577.34;;;9.37;45.53
70916;BME280;58557;50.982;-3.222;2023-04-08T01:41:26;101582.57;;;9.48;45.33
70916;BME280;58557;50.982;-3.222;2023-04-08T01:43:51;101588.29;;;9.26;45.03
70916;BME280;58557;50.982;-3.222;2023-04-08T01:46:17;101586.02;;;10.24;43.41
70916;BME280;58557;50.982;-3.222;2023-04-08T01:48:42;101588.32;;;9.30;44.22
70916;BME280;58557;50.982;-3.222;2023-04-08T01:51:08;101593.96;;;10.07;43.26
70916;BME280;58557;50.982;-3.222;2023-04-08T01:53:33;101595.75;;;8.47;45.43
70916;BME280;58557;50.982;-3.222;2023-04-08T01:56:04;101592.70;;;9.32;44.52
70916;BME280;58557;50.982;-3.222;2023-04-08T01:58:24;101600.32;;;7.84;47.50
70916;BME280;58557;50.982;-3.222;2023-04-08T02:00:50;101600.45;;;7.98;47.88
70916;BME280;58557;50.982;-3.222;2023-04-08T02:03:17;101599.47;;;6.56;51.16
70916;BME280;58557;50.982;-3.222;2023-04-08T02:05:40;101603.58;;;5.82;53.43
70916;BME280;58557;50.982;-3.222;2023-04-08T02:08:05;101602.94;;;5.91;52.94
70916;BME280;58557;50.982;-3.222;2023-04-08T02:10:31;101596.64;;;5.87;53.52
70916;BME280;58557;50.982;-3.222;2023-04-08T02:12:57;101597.16;;;7.15;52.49
70916;BME280;58557;50.982;-3.222;2023-04-08T02:15:23;101596.77;;;7.36;50.51
70916;BME280;58557;50.982;-3.222;2023-04-08T02:17:51;101602.39;;;6.68;51.20
70916;BME280;58557;50.982;-3.222;2023-04-08T02:20:17;101599.63;;;7.30;50.73
70916;BME280;58557;50.982;-3.222;2023-04-08T02:22:42;101605.32;;;5.87;52.00
70916;BME280;58557;50.982;-3.222;2023-04-08T02:25:07;101604.31;;;7.98;48.85
70916;BME280;58557;50.982;-3.222;2023-04-08T02:27:32;101607.25;;;7.01;49.00
70916;BME280;58557;50.982;-3.222;2023-04-08T02:29:56;101605.36;;;8.01;47.89
70916;BME280;58557;50.982;-3.222;2023-04-08T02:32:21;101608.15;;;8.02;47.79
70916;BME280;58557;50.982;-3.222;2023-04-08T02:34:46;101616.32;;;8.21;46.47
70916;BME280;58557;50.982;-3.222;2023-04-08T02:37:11;101614.12;;;8.74;45.36
70916;BME280;58557;50.982;-3.222;2023-04-08T02:39:36;101611.04;;;7.23;47.53
70916;BME280;58557;50.982;-3.222;2023-04-08T02:42:03;101608.71;;;5.89;50.57
70916;BME280;58557;50.982;-3.222;2023-04-08T02:44:27;101613.13;;;5.46;54.37
70916;BME280;58557;50.982;-3.222;2023-04-08T02:46:53;101614.21;;;5.36;53.83
70916;BME280;58557;50.982;-3.222;2023-04-08T02:49:18;101616.74;;;6.72;52.73
70916;BME280;58557;50.982;-3.222;2023-04-08T02:51:43;101622.99;;;6.60;50.90
70916;BME280;58557;50.982;-3.222;2023-04-08T02:54:09;101618.24;;;7.89;46.99
70916;BME280;58557;50.982;-3.222;2023-04-08T02:56:35;101619.66;;;7.90;48.52
70916;BME280;58557;50.982;-3.222;2023-04-08T02:59:00;101620.93;;;7.45;48.31
70916;BME280;58557;50.982;-3.222;2023-04-08T03:01:26;101621.03;;;6.43;50.93
70916;BME280;58557;50.982;-3.222;2023-04-08T03:03:52;101621.55;;;7.32;50.06
70916;BME280;58557;50.982;-3.222;2023-04-08T03:06:17;101624.76;;;8.13;48.30
70916;BME280;58557;50.982;-3.222;2023-04-08T03:08:42;101623.87;;;7.39;47.47
70916;BME280;58557;50.982;-3.222;2023-04-08T03:11:08;101626.49;;;5.15;53.95
70916;BME280;58557;50.982;-3.222;2023-04-08T03:13:33;101630.53;;;6.06;52.56
70916;BME280;58557;50.982;-3.222;2023-04-08T03:15:58;101635.60;;;5.79;53.96
70916;BME280;58557;50.982;-3.222;2023-04-08T03:18:24;101633.82;;;5.10;55.76
70916;BME280;58557;50.982;-3.222;2023-04-08T03:20:49;101631.45;;;5.67;53.53
70916;BME280;58557;50.982;-3.222;2023-04-08T03:23:15;101633.33;;;2.76;62.39
70916;BME280;58557;50.982;-3.222;2023-04-08T03:25:40;101634.64;;;5.12;56.89
70916;BME280;58557;50.982;-3.222;2023-04-08T03:28:05;101637.24;;;6.49;52.98
70916;BME280;58557;50.982;-3.222;2023-04-08T03:30:31;101632.00;;;5.82;54.03
70916;BME280;58557;50.982;-3.222;2023-04-08T03:32:56;101634.46;;;7.27;50.21
70916;BME280;58557;50.982;-3.222;2023-04-08T03:35:22;101636.54;;;6.82;51.49
70916;BME280;58557;50.982;-3.222;2023-04-08T03:37:47;101637.26;;;8.02;48.60
70916;BME280;58557;50.982;-3.222;2023-04-08T03:40:13;101645.21;;;7.62;48.94
70916;BME280;58557;50.982;-3.222;2023-04-08T03:42:38;101646.08;;;7.84;48.48
70916;BME280;58557;50.982;-3.222;2023-04-08T03:45:04;101646.34;;;8.52;46.65
70916;BME280;58557;50.982;-3.222;2023-04-08T03:47:29;101646.90;;;5.71;52.14
70916;BME280;58557;50.982;-3.222;2023-04-08T03:49:54;101645.55;;;8.17;48.04
70916;BME280;58557;50.982;-3.222;2023-04-08T03:52:20;101648.90;;;7.27;48.93
70916;BME280;58557;50.982;-3.222;2023-04-08T03:54:45;101650.49;;;8.16;47.28
70916;BME280;58557;50.982;-3.222;2023-04-08T03:57:10;101650.17;;;7.94;48.07
70916;BME280;58557;50.982;-3.222;2023-04-08T03:59:35;101644.89;;;7.38;48.02
70916;BME280;58557;50.982;-3.222;2023-04-08T04:02:01;101649.54;;;8.25;46.46
70916;BME280;58557;50.982;-3.222;2023-04-08T04:04:26;101652.29;;;8.49;47.54
70916;BME280;58557;50.982;-3.222;2023-04-08T04:06:52;101653.04;;;8.29;47.49
70916;BME280;58557;50.982;-3.222;2023-04-08T04:09:18;101653.66;;;7.52;46.94
70916;BME280;58557;50.982;-3.222;2023-04-08T04:11:43;101654.01;;;5.94;50.64
70916;BME280;58557;50.982;-3.222;2023-04-08T04:14:08;101654.90;;;6.78;50.84
70916;BME280;58557;50.982;-3.222;2023-04-08T04:16:34;101657.38;;;8.40;47.91
70916;BME280;58557;50.982;-3.222;2023-04-08T04:18:59;101661.24;;;8.08;45.81
70916;BME280;58557;50.982;-3.222;2023-04-08T04:21:24;101659.35;;;7.97;47.22
70916;BME280;58557;50.982;-3.222;2023-04-08T04:23:50;101659.34;;;7.72;47.47
70916;BME280;58557;50.982;-3.222;2023-04-08T04:26:15;101665.24;;;8.72;46.06
70916;BME280;58557;50.982;-3.222;2023-04-08T04:28:41;101660.06;;;8.15;47.00
70916;BME280;58557;50.982;-3.222;2023-04-08T04:31:06;101659.47;;;7.85;47.46
70916;BME280;58557;50.982;-3.222;2023-04-08T04:33:32;101659.79;;;7.68;47.32
70916;BME280;58557;50.982;-3.222;2023-04-08T04:35:57;101665.90;;;8.63;44.71
70916;BME280;58557;50.982;-3.222;2023-04-08T04:38:23;101673.72;;;8.64;45.69
70916;BME280;58557;50.982;-3.222;2023-04-08T04:40:48;101671.13;;;8.70;45.50
70916;BME280;58557;50.982;-3.222;2023-04-08T04:43:13;101666.51;;;7.33;45.64
70916;BME280;58557;50.982;-3.222;2023-04-08T04:45:39;101667.76;;;8.21;44.83
70916;BME280;58557;50.982;-3.222;2023-04-08T04:48:05;101670.08;;;8.35;45.90
70916;BME280;58557;50.982;-3.222;2023-04-08T04:50:30;101673.14;;;8.94;44.02
70916;BME280;58557;50.982;-3.222;2023-04-08T04:52:55;101676.01;;;8.28;45.12
70916;BME280;58557;50.982;-3.222;2023-04-08T04:55:20;101670.06;;;8.03;46.09
70916;BME280;58557;50.982;-3.222;2023-04-08T04:57:45;101675.66;;;8.29;44.43
70916;BME280;58557;50.982;-3.222;2023-04-08T05:00:12;101677.18;;;8.59;44.86
70916;BME280;58557;50.982;-3.222;2023-04-08T05:02:36;101678.89;;;9.01;44.26
70916;BME280;58557;50.982;-3.222;2023-04-08T05:05:01;101675.75;;;7.91;46.53
70916;BME280;58557;50.982;-3.222;2023-04-08T05:07:26;101679.55;;;7.59;46.17
70916;BME280;58557;50.982;-3.222;2023-04-08T05:09:52;101685.68;;;7.56;45.70
70916;BME280;58557;50.982;-3.222;2023-04-08T05:12:17;101687.13;;;8.08;45.93
70916;BME280;58557;50.982;-3.222;2023-04-08T05:14:42;101685.59;;;7.31;47.10
70916;BME280;58557;50.982;-3.222;2023-04-08T05:17:08;101686.43;;;6.47;50.40
70916;BME280;58557;50.982;-3.222;2023-04-08T05:19:33;101686.15;;;8.21;46.45
70916;BME280;58557;50.982;-3.222;2023-04-08T05:21:58;101685.68;;;8.00;44.17
70916;BME280;58557;50.982;-3.222;2023-04-08T05:24:23;101690.71;;;8.41;44.98
70916;BME280;58557;50.982;-3.222;2023-04-08T05:26:48;101687.96;;;7.29;45.66
70916;BME280;58557;50.982;-3.222;2023-04-08T05:29:14;101690.86;;;7.49;46.22
70916;BME280;58557;50.982;-3.222;2023-04-08T05:31:39;101684.65;;;8.02;45.09
70916;BME280;58557;50.982;-3.222;2023-04-08T05:34:04;101690.28;;;7.30;46.29
70916;BME280;58557;50.982;-3.222;2023-04-08T05:36:30;101687.12;;;8.05;45.90
70916;BME280;58557;50.982;-3.222;2023-04-08T05:38:55;101686.84;;;7.97;45.24
70916;BME280;58557;50.982;-3.222;2023-04-08T05:41:21;101693.26;;;7.42;46.30
70916;BME280;58557;50.982;-3.222;2023-04-08T05:43:46;101695.08;;;7.41;46.93
70916;BME280;58557;50.982;-3.222;2023-04-08T05:46:11;101695.36;;;7.71;47.39
70916;BME280;58557;50.982;-3.222;2023-04-08T05:48:36;101697.29;;;8.30;45.98
70916;BME280;58557;50.982;-3.222;2023-04-08T05:51:02;101697.37;;;6.91;48.98
70916;BME280;58557;50.982;-3.222;2023-04-08T05:53:27;101702.66;;;7.38;46.80
70916;BME280;58557;50.982;-3.222;2023-04-08T05:55:53;101701.75;;;8.21;45.76
70916;BME280;58557;50.982;-3.222;2023-04-08T05:58:18;101705.74;;;8.53;46.12
70916;BME280;58557;50.982;-3.222;2023-04-08T06:00:43;101708.58;;;7.56;46.22
70916;BME280;58557;50.982;-3.222;2023-04-08T06:03:08;101707.45;;;7.97;44.61
70916;BME280;58557;50.982;-3.222;2023-04-08T06:05:34;101708.52;;;8.66;45.67
70916;BME280;58557;50.982;-3.222;2023-04-08T06:07:59;101712.84;;;8.91;44.86
70916;BME280;58557;50.982;-3.222;2023-04-08T06:10:24;101717.43;;;8.62;45.34
70916;BME280;58557;50.982;-3.222;2023-04-08T06:12:50;101719.65;;;9.18;45.27
70916;BME280;58557;50.982;-3.222;2023-04-08T06:15:15;101719.72;;;7.91;47.65
70916;BME280;58557;50.982;-3.222;2023-04-08T06:17:41;101722.45;;;8.98;46.09
70916;BME280;58557;50.982;-3.222;2023-04-08T06:20:06;101719.37;;;8.72;45.43
70916;BME280;58557;50.982;-3.222;2023-04-08T06:22:31;101729.27;;;9.11;46.12
70916;BME280;58557;50.982;-3.222;2023-04-08T06:24:56;101721.91;;;8.67;45.54
70916;BME280;58557;50.982;-3.222;2023-04-08T06:27:22;101722.26;;;8.72;47.18
70916;BME280;58557;50.982;-3.222;2023-04-08T06:29:47;101725.19;;;9.50;45.61
70916;BME280;58557;50.982;-3.222;2023-04-08T06:32:12;101725.31;;;8.35;48.36
70916;BME280;58557;50.982;-3.222;2023-04-08T06:34:37;101726.35;;;8.28;47.68
70916;BME280;58557;50.982;-3.222;2023-04-08T06:37:02;101732.98;;;7.15;52.56
70916;BME280;58557;50.982;-3.222;2023-04-08T06:39:27;101731.05;;;8.83;48.41
70916;BME280;58557;50.982;-3.222;2023-04-08T06:41:53;101732.32;;;8.65;50.09
70916;BME280;58557;50.982;-3.222;2023-04-08T06:44:18;101735.29;;;8.56;49.02
70916;BME280;58557;50.982;-3.222;2023-04-08T06:46:43;101735.23;;;7.65;51.84
70916;BME280;58557;50.982;-3.222;2023-04-08T06:49:08;101741.36;;;6.89;53.52
70916;BME280;58557;50.982;-3.222;2023-04-08T06:51:33;101744.93;;;7.23;53.86
70916;BME280;58557;50.982;-3.222;2023-04-08T06:53:58;101745.34;;;7.77;53.53
70916;BME280;58557;50.982;-3.222;2023-04-08T06:56:23;101750.69;;;6.75;56.27
70916;BME280;58557;50.982;-3.222;2023-04-08T06:58:48;101750.42;;;6.08;59.27
70916;BME280;58557;50.982;-3.222;2023-04-08T07:01:14;101753.65;;;6.53;59.18
70916;BME280;58557;50.982;-3.222;2023-04-08T07:03:39;101757.70;;;6.32;59.79
70916;BME280;58557;50.982;-3.222;2023-04-08T07:06:05;101760.83;;;5.95;61.17
70916;BME280;58557;50.982;-3.222;2023-04-08T07:08:29;101759.51;;;5.94;62.02
70916;BME280;58557;50.982;-3.222;2023-04-08T07:10:55;101764.11;;;6.24;62.26
70916;BME280;58557;50.982;-3.222;2023-04-08T07:13:20;101765.03;;;5.69;63.01
70916;BME280;58557;50.982;-3.222;2023-04-08T07:15:46;101766.88;;;6.14;62.21
70916;BME280;58557;50.982;-3.222;2023-04-08T07:18:11;101760.38;;;6.25;62.22
70916;BME280;58557;50.982;-3.222;2023-04-08T07:20:36;101764.60;;;7.75;58.81
70916;BME280;58557;50.982;-3.222;2023-04-08T07:23:01;101768.19;;;7.38;59.10
70916;BME280;58557;50.982;-3.222;2023-04-08T07:25:27;101769.47;;;7.89;58.33
70916;BME280;58557;50.982;-3.222;2023-04-08T07:27:52;101770.49;;;8.01;57.61
70916;BME280;58557;50.982;-3.222;2023-04-08T07:30:18;101772.58;;;7.49;60.77
70916;BME280;58557;50.982;-3.222;2023-04-08T07:32:44;101775.71;;;7.95;60.94
70916;BME280;58557;50.982;-3.222;2023-04-08T07:35:09;101778.05;;;7.30;62.09
70916;BME280;58557;50.982;-3.222;2023-04-08T07:37:34;101782.86;;;7.87;60.99
70916;BME280;58557;50.982;-3.222;2023-04-08T07:39:59;101784.81;;;7.39;61.35
70916;BME280;58557;50.982;-3.222;2023-04-08T07:42:24;101785.25;;;7.45;63.53
70916;BME280;58557;50.982;-3.222;2023-04-08T07:44:49;101793.86;;;7.92;62.43
70916;BME280;58557;50.982;-3.222;2023-04-08T07:47:15;101793.35;;;8.36;62.09
70916;BME280;58557;50.982;-3.222;2023-04-08T07:49:41;101797.04;;;8.06;62.45
70916;BME280;58557;50.982;-3.222;2023-04-08T07:52:06;101799.47;;;7.61;64.43
70916;BME280;58557;50.982;-3.222;2023-04-08T07:54:31;101798.39;;;8.22;63.89
70916;BME280;58557;50.982;-3.222;2023-04-08T07:56:56;101799.27;;;7.96;63.79
70916;BME280;58557;50.982;-3.222;2023-04-08T07:59:22;101801.01;;;9.09;61.89
70916;BME280;58557;50.982;-3.222;2023-04-08T08:01:48;101798.96;;;8.78;62.60
70916;BME280;58557;50.982;-3.222;2023-04-08T08:04:13;101793.46;;;9.04;62.30
70916;BME280;58557;50.982;-3.222;2023-04-08T08:06:38;101803.46;;;10.17;59.60
70916;BME280;58557;50.982;-3.222;2023-04-08T08:09:03;101799.96;;;11.15;56.10
70916;BME280;58557;50.982;-3.222;2023-04-08T08:11:28;101797.72;;;11.67;53.14
70916;BME280;58557;50.982;-3.222;2023-04-08T08:13:54;101801.12;;;11.12;54.90
70916;BME280;58557;50.982;-3.222;2023-04-08T08:16:20;101807.86;;;11.27;53.69
70916;BME280;58557;50.982;-3.222;2023-04-08T08:18:46;101805.92;;;11.45;53.62
70916;BME280;58557;50.982;-3.222;2023-04-08T08:21:11;101799.82;;;12.07;52.37
70916;BME280;58557;50.982;-3.222;2023-04-08T08:23:37;101802.62;;;11.98;53.11
70916;BME280;58557;50.982;-3.222;2023-04-08T08:26:04;101805.92;;;13.37;49.65
70916;BME280;58557;50.982;-3.222;2023-04-08T08:28:28;101804.79;;;13.83;48.41
70916;BME280;58557;50.982;-3.222;2023-04-08T08:30:53;101805.41;;;13.32;49.54
70916;BME280;58557;50.982;-3.222;2023-04-08T08:33:19;101804.08;;;14.05;49.98
70916;BME280;58557;50.982;-3.222;2023-04-08T08:35:44;101809.12;;;13.83;51.17
70916;BME280;58557;50.982;-3.222;2023-04-08T08:38:10;101803.61;;;13.94;50.20
70916;BME280;58557;50.982;-3.222;2023-04-08T08:40:35;101809.79;;;14.33;49.87
70916;BME280;58557;50.982;-3.222;2023-04-08T08:43:01;101812.71;;;14.85;49.07
70916;BME280;58557;50.982;-3.222;2023-04-08T08:45:26;101807.38;;;13.28;51.95
70916;BME280;58557;50.982;-3.222;2023-04-08T08:47:52;101812.94;;;13.90;50.03
70916;BME280;58557;50.982;-3.222;2023-04-08T08:50:18;101815.59;;;13.83;50.78
70916;BME280;58557;50.982;-3.222;2023-04-08T08:52:48;101815.82;;;14.97;48.68
70916;BME280;58557;50.982;-3.222;2023-04-08T08:55:08;101822.35;;;14.73;48.16
70916;BME280;58557;50.982;-3.222;2023-04-08T08:57:34;101817.20;;;14.43;47.19
70916;BME280;58557;50.982;-3.222;2023-04-08T09:00:00;101816.40;;;15.80;46.24
70916;BME280;58557;50.982;-3.222;2023-04-08T09:02:27;101819.68;;;16.68;43.95
70916;BME280;58557;50.982;-3.222;2023-04-08T09:04:56;101818.66;;;17.28;42.03
70916;BME280;58557;50.982;-3.222;2023-04-08T09:07:16;101815.79;;;16.06;43.75
70916;BME280;58557;50.982;-3.222;2023-04-08T09:09:48;101814.76;;;16.78;42.62
70916;BME280;58557;50.982;-3.222;2023-04-08T09:12:08;101813.18;;;16.84;42.63
70916;BME280;58557;50.982;-3.222;2023-04-08T09:14:32;101815.03;;;16.58;42.00
70916;BME280;58557;50.982;-3.222;2023-04-08T09:16:58;101819.76;;;17.24;40.49
70916;BME280;58557;50.982;-3.222;2023-04-08T09:19:23;101820.19;;;16.76;41.83
70916;BME280;58557;50.982;-3.222;2023-04-08T09:24:29;101821.51;;;15.57;41.80
70916;BME280;58557;50.982;-3.222;2023-04-08T09:26:45;101823.80;;;15.49;42.32
70916;BME280;58557;50.982;-3.222;2023-04-08T09:29:07;101823.91;;;15.40;42.09
70916;BME280;58557;50.982;-3.222;2023-04-08T09:31:32;101829.84;;;16.84;40.38
70916;BME280;58557;50.982;-3.222;2023-04-08T09:33:58;101820.21;;;15.59;43.21
70916;BME280;58557;50.982;-3.222;2023-04-08T09:36:23;101822.68;;;15.90;41.06
70916;BME280;58557;50.982;-3.222;2023-04-08T09:38:48;101823.87;;;15.34;42.39
70916;BME280;58557;50.982;-3.222;2023-04-08T09:41:16;101823.11;;;15.33;43.78
70916;BME280;58557;50.982;-3.222;2023-04-08T09:43:42;101822.96;;;15.17;42.34
70916;BME280;58557;50.982;-3.222;2023-04-08T09:46:05;101816.83;;;15.85;42.63
70916;BME280;58557;50.982;-3.222;2023-04-08T09:48:36;101815.50;;;16.63;40.61
70916;BME280;58557;50.982;-3.222;2023-04-08T09:50:57;101820.66;;;16.57;38.95
70916;BME280;58557;50.982;-3.222;2023-04-08T09:53:25;101822.87;;;15.99;38.95
70916;BME280;58557;50.982;-3.222;2023-04-08T09:55:50;101827.20;;;16.01;38.49
70916;BME280;58557;50.982;-3.222;2023-04-08T09:58:15;101825.06;;;16.46;37.91
70916;BME280;58557;50.982;-3.222;2023-04-08T10:00:41;101827.39;;;17.07;37.01
70916;BME280;58557;50.982;-3.222;2023-04-08T10:03:09;101826.14;;;16.31;37.57
70916;BME280;58557;50.982;-3.222;2023-04-08T10:05:30;101831.70;;;14.88;39.70
70916;BME280;58557;50.982;-3.222;2023-04-08T10:07:55;101832.46;;;15.17;39.13
70916;BME280;58557;50.982;-3.222;2023-04-08T10:10:21;101830.01;;;16.42;37.94
70916;BME280;58557;50.982;-3.222;2023-04-08T10:12:47;101831.21;;;16.05;37.54
70916;BME280;58557;50.982;-3.222;2023-04-08T10:15:22;101832.13;;;17.89;36.02
70916;BME280;58557;50.982;-3.222;2023-04-08T10:17:37;101836.10;;;16.82;36.53
70916;BME280;58557;50.982;-3.222;2023-04-08T10:20:03;101823.46;;;15.98;33.26
70916;BME280;58557;50.982;-3.222;2023-04-08T10:22:46;101828.27;;;14.91;35.31
70916;BME280;58557;50.982;-3.222;2023-04-08T10:29:45;101824.95;;;15.66;34.89
70916;BME280;58557;50.982;-3.222;2023-04-08T10:37:02;101828.99;;;15.17;35.23
70916;BME280;58557;50.982;-3.222;2023-04-08T10:39:29;101828.33;;;15.30;35.35
70916;BME280;58557;50.982;-3.222;2023-04-08T10:41:54;101822.41;;;14.49;35.70
70916;BME280;58557;50.982;-3.222;2023-04-08T10:44:21;101823.50;;;14.41;36.25
70916;BME280;58557;50.982;-3.222;2023-04-08T10:46:45;101825.42;;;14.27;36.35
70916;BME280;58557;50.982;-3.222;2023-04-08T10:49:11;101820.68;;;14.64;37.05
70916;BME280;58557;50.982;-3.222;2023-04-08T10:51:37;101819.69;;;15.01;34.87
70916;BME280;58557;50.982;-3.222;2023-04-08T10:54:05;101821.07;;;14.56;36.96
70916;BME280;58557;50.982;-3.222;2023-04-08T10:56:28;101820.88;;;16.06;34.53
70916;BME280;58557;50.982;-3.222;2023-04-08T10:58:54;101825.42;;;15.77;35.39
70916;BME280;58557;50.982;-3.222;2023-04-08T11:01:19;101814.35;;;15.39;34.51
70916;BME280;58557;50.982;-3.222;2023-04-08T11:03:44;101820.24;;;15.14;35.39
70916;BME280;58557;50.982;-3.222;2023-04-08T11:06:10;101822.78;;;15.25;35.76
70916;BME280;58557;50.982;-3.222;2023-04-08T11:08:36;101821.18;;;15.23;35.27
70916;BME280;58557;50.982;-3.222;2023-04-08T11:11:01;101814.98;;;15.13;36.92
70916;BME280;58557;50.982;-3.222;2023-04-08T11:13:26;101818.48;;;15.91;35.19
70916;BME280;58557;50.982;-3.222;2023-04-08T11:15:51;101817.29;;;16.11;34.43
70916;BME280;58557;50.982;-3.222;2023-04-08T11:18:17;101818.86;;;15.97;33.66
70916;BME280;58557;50.982;-3.222;2023-04-08T11:20:43;101815.70;;;16.53;33.49
70916;BME280;58557;50.982;-3.222;2023-04-08T11:23:12;101808.20;;;16.49;34.50
70916;BME280;58557;50.982;-3.222;2023-04-08T11:25:34;101820.97;;;15.85;33.41
70916;BME280;58557;50.982;-3.222;2023-04-08T11:28:00;101810.14;;;16.50;34.30
70916;BME280;58557;50.982;-3.222;2023-04-08T11:30:25;101808.63;;;15.68;34.68
70916;BME280;58557;50.982;-3.222;2023-04-08T11:32:51;101805.23;;;16.47;33.26
70916;BME280;58557;50.982;-3.222;2023-04-08T11:35:17;101809.30;;;16.07;34.79
70916;BME280;58557;50.982;-3.222;2023-04-08T11:37:42;101807.16;;;15.81;33.81
70916;BME280;58557;50.982;-3.222;2023-04-08T11:40:09;101805.94;;;16.29;33.80
70916;BME280;58557;50.982;-3.222;2023-04-08T11:42:33;101806.90;;;15.74;35.97
70916;BME280;58557;50.982;-3.222;2023-04-08T11:44:58;101808.30;;;15.72;36.27
70916;BME280;58557;50.982;-3.222;2023-04-08T11:47:29;101801.50;;;15.83;36.68
70916;BME280;58557;50.982;-3.222;2023-04-08T11:49:50;101802.76;;;16.53;34.40
70916;BME280;58557;50.982;-3.222;2023-04-08T11:52:15;101803.80;;;16.55;33.98
70916;BME280;58557;50.982;-3.222;2023-04-08T11:54:42;101803.00;;;15.78;34.99
70916;BME280;58557;50.982;-3.222;2023-04-08T11:57:07;101801.94;;;16.85;33.27
70916;BME280;58557;50.982;-3.222;2023-04-08T11:59:32;101801.03;;;15.28;34.39
70916;BME280;58557;50.982;-3.222;2023-04-08T12:01:58;101798.74;;;15.52;35.46
70916;BME280;58557;50.982;-3.222;2023-04-08T12:04:23;101795.41;;;16.34;33.82
70916;BME280;58557;50.982;-3.222;2023-04-08T12:06:49;101793.82;;;16.92;31.94
70916;BME280;58557;50.982;-3.222;2023-04-08T12:09:15;101790.29;;;17.80;31.65
70916;BME280;58557;50.982;-3.222;2023-04-08T12:11:40;101792.70;;;17.43;32.45
70916;BME280;58557;50.982;-3.222;2023-04-08T12:14:06;101787.58;;;17.95;32.03
70916;BME280;58557;50.982;-3.222;2023-04-08T12:16:31;101787.72;;;17.56;31.24
70916;BME280;58557;50.982;-3.222;2023-04-08T12:18:56;101786.74;;;17.78;31.36
70916;BME280;58557;50.982;-3.222;2023-04-08T12:21:22;101795.32;;;16.98;30.82
70916;BME280;58557;50.982;-3.222;2023-04-08T12:23:47;101799.47;;;17.12;32.54
70916;BME280;58557;50.982;-3.222;2023-04-08T12:26:12;101797.77;;;15.52;33.04
70916;BME280;58557;50.982;-3.222;2023-04-08T12:28:37;101802.00;;;15.02;33.32
70916;BME280;58557;50.982;-3.222;2023-04-08T12:31:03;101797.94;;;14.48;33.92
70916;BME280;58557;50.982;-3.222;2023-04-08T12:33:28;101804.70;;;14.50;35.29
70916;BME280;58557;50.982;-3.222;2023-04-08T12:35:53;101802.57;;;14.32;35.35
70916;BME280;58557;50.982;-3.222;2023-04-08T12:38:19;101796.63;;;15.14;34.55
70916;BME280;58557;50.982;-3.222;2023-04-08T12:40:44;101792.58;;;15.42;34.46
70916;BME280;58557;50.982;-3.222;2023-04-08T12:43:10;101797.41;;;15.19;33.25
70916;BME280;58557;50.982;-3.222;2023-04-08T12:45:35;101796.99;;;15.21;32.26
70916;BME280;58557;50.982;-3.222;2023-04-08T12:48:00;101797.39;;;14.46;33.79